sensor_id;sensor_type;location;lat;lon;timestamp;pressure;altitude;pressure_sealevel;temperature;humidity
78890;BME280;68279;48.964;14.502;2023-04-03T06:46:54;97783.81;;;0.51;78.65
78890;BME280;68279;48.964;14.502;2023-04-03T06:49:20;97775.53;;;0.61;77.34
78890;BME280;68279;48.964;14.502;2023-04-03T06:51:52;97779.25;;;0.80;77.16
78890;BME280;68279;48.964;14.502;2023-04-03T06:54:18;97790.78;;;0.72;76.04
78890;BME280;68279;48.964;14.502;2023-04-03T06:56:44;97784.31;;;0.75;75.85
78890;BME280;68279;48.964;14.502;2023-04-03T06:59:12;97792.38;;;0.67;76.32
78890;BME280;68279;48.964;14.502;2023-04-03T07:01:39;97794.81;;;0.68;76.32
78890;BME280;68279;48.964;14.502;2023-04-03T07:04:04;97798.69;;;0.72;74.84
78890;BME280;68279;48.964;14.502;2023-04-03T07:06:31;97807.75;;;0.63;75.01
78890;BME280;68279;48.964;14.502;2023-04-03T07:09:01;97809.56;;;0.56;74.49
78890;BME280;68279;48.964;14.502;2023-04-03T07:11:26;97807.94;;;0.55;74.25
78890;BME280;68279;48.964;14.502;2023-04-03T07:13:54;97800.25;;;0.53;75.21
78890;BME280;68279;48.964;14.502;2023-04-03T07:16:20;97810.44;;;0.83;74.62
78890;BME280;68279;48.964;14.502;2023-04-03T07:18:47;97811.47;;;0.95;73.26
78890;BME280;68279;48.964;14.502;2023-04-03T07:21:13;97808.47;;;0.98;72.56
78890;BME280;68279;48.964;14.502;2023-04-03T07:23:40;97814.50;;;0.85;72.88
78890;BME280;68279;48.964;14.502;2023-04-03T07:26:08;97819.72;;;0.66;74.37
78890;BME280;68279;48.964;14.502;2023-04-03T07:28:34;97827.34;;;1.28;71.43
78890;BME280;68279;48.964;14.502;2023-04-03T07:31:12;97838.50;;;1.24;72.70
78890;BME280;68279;48.964;14.502;2023-04-03T07:33:42;97825.13;;;1.25;72.28
78890;BME280;68279;48.964;14.502;2023-04-03T07:36:10;97833.66;;;1.47;72.54
78890;BME280;68279;48.964;14.502;2023-04-03T07:38:36;97833.03;;;1.38;71.40
78890;BME280;68279;48.964;14.502;2023-04-03T07:41:11;97831.41;;;1.18;70.70
78890;BME280;68279;48.964;14.502;2023-04-03T07:43:37;97834.84;;;1.58;69.81
78890;BME280;68279;48.964;14.502;2023-04-03T07:46:05;97833.22;;;1.17;69.56
78890;BME280;68279;48.964;14.502;2023-04-03T07:48:31;97827.16;;;1.43;69.07
78890;BME280;68279;48.964;14.502;2023-04-03T07:51:02;97827.94;;;1.17;68.90
78890;BME280;68279;48.964;14.502;2023-04-03T07:53:32;97833.25;;;1.24;70.08
78890;BME280;68279;48.964;14.502;2023-04-03T07:56:00;97845.59;;;1.36;67.02
78890;BME280;68279;48.964;14.502;2023-04-03T07:58:29;97848.44;;;1.28;69.45
78890;BME280;68279;48.964;14.502;2023-04-03T08:00:56;97838.91;;;1.34;67.16
78890;BME280;68279;48.964;14.502;2023-04-03T08:03:23;97837.97;;;0.74;70.30
78890;BME280;68279;48.964;14.502;2023-04-03T08:05:49;97841.69;;;1.06;69.21
78890;BME280;68279;48.964;14.502;2023-04-03T08:08:18;97849.44;;;1.21;70.51
78890;BME280;68279;48.964;14.502;2023-04-03T08:10:49;97843.97;;;1.16;69.37
78890;BME280;68279;48.964;14.502;2023-04-03T08:13:15;97847.78;;;1.00;69.23
78890;BME280;68279;48.964;14.502;2023-04-03T08:15:41;97844.97;;;1.08;69.27
78890;BME280;68279;48.964;14.502;2023-04-03T08:18:06;97845.56;;;1.10;69.27
78890;BME280;68279;48.964;14.502;2023-04-03T08:20:33;97849.22;;;1.16;70.70
78890;BME280;68279;48.964;14.502;2023-04-03T08:22:58;97853.50;;;1.30;69.66
78890;BME280;68279;48.964;14.502;2023-04-03T08:25:24;97855.53;;;1.41;69.31
78890;BME280;68279;48.964;14.502;2023-04-03T08:27:51;97859.00;;;1.41;70.02
78890;BME280;68279;48.964;14.502;2023-04-03T08:30:23;97870.53;;;1.27;71.07
78890;BME280;68279;48.964;14.502;2023-04-03T08:32:48;97858.50;;;0.98;71.46
78890;BME280;68279;48.964;14.502;2023-04-03T08:35:16;97863.56;;;1.00;70.90
78890;BME280;68279;48.964;14.502;2023-04-03T08:37:42;97856.88;;;0.97;70.59
78890;BME280;68279;48.964;14.502;2023-04-03T08:40:13;97866.75;;;0.82;70.62
78890;BME280;68279;48.964;14.502;2023-04-03T08:45:51;97866.97;;;0.87;71.70
78890;BME280;68279;48.964;14.502;2023-04-03T08:48:27;97875.25;;;0.84;72.06
78890;BME280;68279;48.964;14.502;2023-04-03T08:51:00;97873.81;;;0.75;71.42
78890;BME280;68279;48.964;14.502;2023-04-03T08:53:33;97874.88;;;0.94;70.66
78890;BME280;68279;48.964;14.502;2023-04-03T08:56:05;97883.41;;;0.89;69.56
78890;BME280;68279;48.964;14.502;2023-04-03T08:59:04;97876.38;;;1.16;69.04
78890;BME280;68279;48.964;14.502;2023-04-03T09:01:35;97886.16;;;1.35;68.53
78890;BME280;68279;48.964;14.502;2023-04-03T09:04:05;97878.56;;;0.99;69.89
78890;BME280;68279;48.964;14.502;2023-04-03T09:06:35;97887.09;;;1.08;68.09
78890;BME280;68279;48.964;14.502;2023-04-03T09:12:44;97893.44;;;1.27;67.76
78890;BME280;68279;48.964;14.502;2023-04-03T09:15:20;97900.72;;;1.31;65.80
78890;BME280;68279;48.964;14.502;2023-04-03T09:20:58;97900.84;;;1.03;69.24
78890;BME280;68279;48.964;14.502;2023-04-03T09:23:30;97904.81;;;1.34;68.33
78890;BME280;68279;48.964;14.502;2023-04-03T09:26:05;97901.44;;;0.92;66.56
78890;BME280;68279;48.964;14.502;2023-04-03T09:28:37;97902.16;;;0.79;68.54
78890;BME280;68279;48.964;14.502;2023-04-03T09:33:41;97903.19;;;0.72;66.24
78890;BME280;68279;48.964;14.502;2023-04-03T09:36:07;97902.03;;;0.94;66.06
78890;BME280;68279;48.964;14.502;2023-04-03T09:38:33;97904.94;;;1.12;67.45
78890;BME280;68279;48.964;14.502;2023-04-03T09:41:06;97906.56;;;1.13;66.50
78890;BME280;68279;48.964;14.502;2023-04-03T09:43:34;97903.38;;;1.38;65.41
78890;BME280;68279;48.964;14.502;2023-04-03T09:48:58;97905.81;;;1.46;65.68
78890;BME280;68279;48.964;14.502;2023-04-03T09:51:28;97897.50;;;1.36;65.44
78890;BME280;68279;48.964;14.502;2023-04-03T09:53:54;97906.00;;;1.31;65.35
78890;BME280;68279;48.964;14.502;2023-04-03T09:56:28;97903.34;;;1.18;64.52
78890;BME280;68279;48.964;14.502;2023-04-03T10:04:16;97907.38;;;1.14;65.68
78890;BME280;68279;48.964;14.502;2023-04-03T10:06:47;97908.44;;;0.78;66.80
78890;BME280;68279;48.964;14.502;2023-04-03T10:09:22;97905.13;;;1.11;66.80
78890;BME280;68279;48.964;14.502;2023-04-03T10:12:09;97907.56;;;1.12;66.32
78890;BME280;68279;48.964;14.502;2023-04-03T10:19:56;97913.31;;;1.49;66.23
78890;BME280;68279;48.964;14.502;2023-04-03T10:25:07;97904.84;;;2.00;61.86
78890;BME280;68279;48.964;14.502;2023-04-03T10:27:48;97904.81;;;2.26;63.75
78890;BME280;68279;48.964;14.502;2023-04-03T10:46:37;97883.38;;;3.82;59.05
78890;BME280;68279;48.964;14.502;2023-04-03T10:49:46;97894.91;;;3.31;56.37
78890;BME280;68279;48.964;14.502;2023-04-03T10:55:40;97883.00;;;2.64;61.15
78890;BME280;68279;48.964;14.502;2023-04-03T10:57:47;97880.06;;;3.30;58.65
78890;BME280;68279;48.964;14.502;2023-04-03T11:00:22;97882.91;;;3.60;55.93
78890;BME280;68279;48.964;14.502;2023-04-03T11:02:51;97872.28;;;3.35;57.92
78890;BME280;68279;48.964;14.502;2023-04-03T11:05:31;97878.41;;;4.36;57.84
78890;BME280;68279;48.964;14.502;2023-04-03T11:08:05;97880.50;;;3.84;57.56
78890;BME280;68279;48.964;14.502;2023-04-03T11:10:41;97876.34;;;3.00;57.96
78890;BME280;68279;48.964;14.502;2023-04-03T11:15:49;97869.84;;;3.02;58.64
78890;BME280;68279;48.964;14.502;2023-04-03T11:18:26;97871.31;;;4.11;58.22
78890;BME280;68279;48.964;14.502;2023-04-03T11:21:35;97874.81;;;3.55;58.64
78890;BME280;68279;48.964;14.502;2023-04-03T11:24:05;97865.97;;;3.05;59.18
78890;BME280;68279;48.964;14.502;2023-04-03T11:26:40;97855.28;;;2.87;57.22
78890;BME280;68279;48.964;14.502;2023-04-03T11:29:15;97865.41;;;2.90;58.24
78890;BME280;68279;48.964;14.502;2023-04-03T11:34:51;97859.06;;;3.67;54.75
78890;BME280;68279;48.964;14.502;2023-04-03T11:37:28;97852.84;;;4.96;51.16
78890;BME280;68279;48.964;14.502;2023-04-03T11:42:36;97853.75;;;3.42;53.18
78890;BME280;68279;48.964;14.502;2023-04-03T11:47:51;97852.09;;;2.71;55.97
78890;BME280;68279;48.964;14.502;2023-04-03T11:50:45;97856.63;;;2.58;55.44
78890;BME280;68279;48.964;14.502;2023-04-03T11:55:52;97861.41;;;2.74;56.18
78890;BME280;68279;48.964;14.502;2023-04-03T11:58:24;97855.94;;;3.20;54.44
78890;BME280;68279;48.964;14.502;2023-04-03T12:16:21;97834.06;;;3.38;51.57
78890;BME280;68279;48.964;14.502;2023-04-03T12:19:41;97832.41;;;4.67;48.37
78890;BME280;68279;48.964;14.502;2023-04-03T12:29:32;97828.44;;;4.76;48.25
78890;BME280;68279;48.964;14.502;2023-04-03T12:37:21;97809.44;;;4.06;48.86
78890;BME280;68279;48.964;14.502;2023-04-03T12:45:38;97805.59;;;5.35;44.27
78890;BME280;68279;48.964;14.502;2023-04-03T12:48:14;97812.84;;;4.49;47.02
78890;BME280;68279;48.964;14.502;2023-04-03T12:50:41;97806.63;;;3.82;48.76
78890;BME280;68279;48.964;14.502;2023-04-03T12:53:34;97819.59;;;3.09;53.85
78890;BME280;68279;48.964;14.502;2023-04-03T12:56:23;97820.41;;;2.71;56.02
78890;BME280;68279;48.964;14.502;2023-04-03T12:58:51;97827.03;;;2.87;55.04
78890;BME280;68279;48.964;14.502;2023-04-03T13:01:23;97826.75;;;3.02;53.71
78890;BME280;68279;48.964;14.502;2023-04-03T13:03:53;97830.94;;;2.78;55.77
78890;BME280;68279;48.964;14.502;2023-04-03T13:06:26;97828.28;;;3.16;56.05
78890;BME280;68279;48.964;14.502;2023-04-03T13:08:54;97822.09;;;2.97;55.54
78890;BME280;68279;48.964;14.502;2023-04-03T13:11:23;97822.53;;;3.26;55.25
78890;BME280;68279;48.964;14.502;2023-04-03T13:14:12;97816.31;;;3.13;53.17
78890;BME280;68279;48.964;14.502;2023-04-03T13:16:40;97812.19;;;3.49;52.89
78890;BME280;68279;48.964;14.502;2023-04-03T13:19:16;97809.81;;;4.82;51.28
78890;BME280;68279;48.964;14.502;2023-04-03T13:21:44;97801.53;;;4.61;51.68
78890;BME280;68279;48.964;14.502;2023-04-03T13:24:11;97804.91;;;4.49;51.30
78890;BME280;68279;48.964;14.502;2023-04-03T13:26:37;97798.16;;;3.74;50.53
78890;BME280;68279;48.964;14.502;2023-04-03T13:29:07;97805.91;;;3.93;51.33
78890;BME280;68279;48.964;14.502;2023-04-03T13:31:38;97797.44;;;3.10;54.98
78890;BME280;68279;48.964;14.502;2023-04-03T13:34:15;97809.69;;;3.36;53.70
78890;BME280;68279;48.964;14.502;2023-04-03T13:41:47;97806.13;;;3.17;56.52
78890;BME280;68279;48.964;14.502;2023-04-03T13:46:40;97792.94;;;3.42;50.83
78890;BME280;68279;48.964;14.502;2023-04-03T13:49:22;97791.50;;;3.46;51.14
78890;BME280;68279;48.964;14.502;2023-04-03T13:51:48;97788.09;;;3.64;51.04
78890;BME280;68279;48.964;14.502;2023-04-03T13:54:29;97794.53;;;4.30;49.27
78890;BME280;68279;48.964;14.502;2023-04-03T13:56:57;97791.19;;;5.43;46.22
78890;BME280;68279;48.964;14.502;2023-04-03T13:59:30;97788.63;;;4.64;48.98
78890;BME280;68279;48.964;14.502;2023-04-03T14:04:43;97782.84;;;4.01;48.99
78890;BME280;68279;48.964;14.502;2023-04-03T14:07:13;97782.03;;;4.00;50.67
78890;BME280;68279;48.964;14.502;2023-04-03T14:09:38;97794.09;;;2.90;54.89
78890;BME280;68279;48.964;14.502;2023-04-03T14:12:08;97792.16;;;3.35;55.07
78890;BME280;68279;48.964;14.502;2023-04-03T14:14:37;97783.78;;;3.13;54.87
78890;BME280;68279;48.964;14.502;2023-04-03T14:17:15;97786.03;;;2.78;54.52
78890;BME280;68279;48.964;14.502;2023-04-03T14:19:42;97790.66;;;3.21;54.54
78890;BME280;68279;48.964;14.502;2023-04-03T14:22:26;97787.97;;;2.96;52.32
78890;BME280;68279;48.964;14.502;2023-04-03T14:24:54;97791.50;;;3.15;53.51
78890;BME280;68279;48.964;14.502;2023-04-03T14:27:23;97787.69;;;3.60;51.26
78890;BME280;68279;48.964;14.502;2023-04-03T14:29:50;97783.97;;;3.68;51.26
78890;BME280;68279;48.964;14.502;2023-04-03T14:32:19;97781.31;;;3.43;51.45
78890;BME280;68279;48.964;14.502;2023-04-03T14:34:46;97775.19;;;3.49;52.00
78890;BME280;68279;48.964;14.502;2023-04-03T14:37:20;97779.94;;;3.40;51.53
78890;BME280;68279;48.964;14.502;2023-04-03T14:39:46;97773.19;;;3.45;52.48
78890;BME280;68279;48.964;14.502;2023-04-03T14:42:15;97782.97;;;4.06;52.18
78890;BME280;68279;48.964;14.502;2023-04-03T14:44:41;97782.41;;;4.40;49.36
78890;BME280;68279;48.964;14.502;2023-04-03T14:47:19;97779.69;;;3.92;50.48
78890;BME280;68279;48.964;14.502;2023-04-03T14:49:46;97777.03;;;3.92;50.79
78890;BME280;68279;48.964;14.502;2023-04-03T14:52:28;97783.78;;;3.45;51.62
78890;BME280;68279;48.964;14.502;2023-04-03T14:54:55;97783.28;;;3.29;49.52
78890;BME280;68279;48.964;14.502;2023-04-03T14:57:23;97785.88;;;3.04;51.71
78890;BME280;68279;48.964;14.502;2023-04-03T14:59:51;97781.22;;;3.00;52.03
78890;BME280;68279;48.964;14.502;2023-04-03T15:02:32;97778.06;;;3.16;52.92
78890;BME280;68279;48.964;14.502;2023-04-03T15:04:59;97788.34;;;2.99;52.87
78890;BME280;68279;48.964;14.502;2023-04-03T15:07:27;97787.13;;;3.27;52.01
78890;BME280;68279;48.964;14.502;2023-04-03T15:09:54;97789.91;;;3.07;52.73
78890;BME280;68279;48.964;14.502;2023-04-03T15:12:24;97797.59;;;3.15;52.96
78890;BME280;68279;48.964;14.502;2023-04-03T15:14:50;97798.31;;;3.29;53.18
78890;BME280;68279;48.964;14.502;2023-04-03T15:17:18;97799.41;;;3.46;52.17
78890;BME280;68279;48.964;14.502;2023-04-03T15:19:45;97791.81;;;3.56;50.72
78890;BME280;68279;48.964;14.502;2023-04-03T15:22:20;97786.91;;;3.03;51.96
78890;BME280;68279;48.964;14.502;2023-04-03T15:24:46;97796.16;;;2.81;51.81
78890;BME280;68279;48.964;14.502;2023-04-03T15:27:12;97796.03;;;2.69;52.51
78890;BME280;68279;48.964;14.502;2023-04-03T15:29:39;97799.16;;;2.53;53.81
78890;BME280;68279;48.964;14.502;2023-04-03T15:32:06;97801.22;;;2.44;55.42
78890;BME280;68279;48.964;14.502;2023-04-03T15:34:32;97795.94;;;2.82;54.83
78890;BME280;68279;48.964;14.502;2023-04-03T15:36:59;97800.81;;;2.47;54.51
78890;BME280;68279;48.964;14.502;2023-04-03T15:39:33;97802.66;;;2.85;53.60
78890;BME280;68279;48.964;14.502;2023-04-03T15:42:00;97794.53;;;3.18;50.78
78890;BME280;68279;48.964;14.502;2023-04-03T15:44:36;97795.69;;;3.29;49.65
78890;BME280;68279;48.964;14.502;2023-04-03T15:47:03;97795.19;;;3.38;50.58
78890;BME280;68279;48.964;14.502;2023-04-03T15:49:31;97795.84;;;3.59;49.65
78890;BME280;68279;48.964;14.502;2023-04-03T15:51:58;97792.19;;;4.40;45.84
78890;BME280;68279;48.964;14.502;2023-04-03T15:54:24;97787.16;;;3.52;46.90
78890;BME280;68279;48.964;14.502;2023-04-03T15:56:52;97796.97;;;3.20;48.66
78890;BME280;68279;48.964;14.502;2023-04-03T15:59:24;97799.34;;;2.96;50.22
78890;BME280;68279;48.964;14.502;2023-04-03T16:01:52;97795.66;;;2.66;51.78
78890;BME280;68279;48.964;14.502;2023-04-03T16:04:18;97790.66;;;2.44;53.63
78890;BME280;68279;48.964;14.502;2023-04-03T16:06:48;97801.00;;;2.46;52.96
78890;BME280;68279;48.964;14.502;2023-04-03T16:09:13;97800.25;;;2.32;54.22
78890;BME280;68279;48.964;14.502;2023-04-03T16:11:41;97803.84;;;2.51;53.22
78890;BME280;68279;48.964;14.502;2023-04-03T16:14:09;97799.38;;;2.45;53.00
78890;BME280;68279;48.964;14.502;2023-04-03T16:16:35;97804.28;;;2.48;54.04
78890;BME280;68279;48.964;14.502;2023-04-03T16:19:03;97802.25;;;2.37;55.00
78890;BME280;68279;48.964;14.502;2023-04-03T16:21:29;97792.16;;;2.27;54.41
78890;BME280;68279;48.964;14.502;2023-04-03T16:24:00;97798.22;;;2.34;53.35
78890;BME280;68279;48.964;14.502;2023-04-03T16:26:26;97802.22;;;2.50;52.03
78890;BME280;68279;48.964;14.502;2023-04-03T16:28:52;97795.97;;;2.38;52.92
78890;BME280;68279;48.964;14.502;2023-04-03T16:31:19;97799.59;;;2.43;54.02
78890;BME280;68279;48.964;14.502;2023-04-03T16:33:44;97795.59;;;2.27;54.16
78890;BME280;68279;48.964;14.502;2023-04-03T16:36:10;97797.97;;;2.42;52.74
78890;BME280;68279;48.964;14.502;2023-04-03T16:38:36;97807.22;;;2.07;54.82
78890;BME280;68279;48.964;14.502;2023-04-03T16:41:02;97808.41;;;2.17;54.59
78890;BME280;68279;48.964;14.502;2023-04-03T16:43:32;97808.03;;;2.07;54.69
78890;BME280;68279;48.964;14.502;2023-04-03T16:45:59;97815.78;;;1.95;54.41
78890;BME280;68279;48.964;14.502;2023-04-03T16:48:24;97820.00;;;2.03;54.24
78890;BME280;68279;48.964;14.502;2023-04-03T16:50:50;97818.81;;;1.92;54.32
78890;BME280;68279;48.964;14.502;2023-04-03T16:53:22;97813.34;;;1.87;54.40
78890;BME280;68279;48.964;14.502;2023-04-03T16:55:48;97816.75;;;2.14;54.41
78890;BME280;68279;48.964;14.502;2023-04-03T16:58:14;97822.06;;;1.94;54.70
78890;BME280;68279;48.964;14.502;2023-04-03T17:00:41;97819.81;;;1.91;54.97
78890;BME280;68279;48.964;14.502;2023-04-03T17:03:07;97817.78;;;1.93;55.51
78890;BME280;68279;48.964;14.502;2023-04-03T17:05:32;97809.28;;;1.98;55.21
78890;BME280;68279;48.964;14.502;2023-04-03T17:07:59;97814.56;;;1.85;55.35
78890;BME280;68279;48.964;14.502;2023-04-03T17:10:27;97820.25;;;1.82;55.20
78890;BME280;68279;48.964;14.502;2023-04-03T17:12:53;97820.63;;;1.92;55.14
78890;BME280;68279;48.964;14.502;2023-04-03T17:15:19;97822.06;;;1.81;55.98
78890;BME280;68279;48.964;14.502;2023-04-03T17:17:46;97824.53;;;1.69;56.49
78890;BME280;68279;48.964;14.502;2023-04-03T17:20:12;97825.69;;;2.00;55.14
78890;BME280;68279;48.964;14.502;2023-04-03T17:22:39;97833.25;;;1.70;56.66
78890;BME280;68279;48.964;14.502;2023-04-03T17:25:05;97830.41;;;1.58;56.53
78890;BME280;68279;48.964;14.502;2023-04-03T17:27:31;97827.38;;;1.68;56.20
78890;BME280;68279;48.964;14.502;2023-04-03T17:29:57;97830.81;;;1.55;57.37
78890;BME280;68279;48.964;14.502;2023-04-03T17:32:24;97831.63;;;1.62;57.49
78890;BME280;68279;48.964;14.502;2023-04-03T17:34:50;97836.72;;;1.51;57.26
78890;BME280;68279;48.964;14.502;2023-04-03T17:37:17;97833.06;;;1.52;57.71
78890;BME280;68279;48.964;14.502;2023-04-03T17:39:42;97838.72;;;1.49;58.81
78890;BME280;68279;48.964;14.502;2023-04-03T17:42:08;97847.63;;;1.41;57.94
78890;BME280;68279;48.964;14.502;2023-04-03T17:44:35;97852.13;;;1.60;57.11
78890;BME280;68279;48.964;14.502;2023-04-03T17:47:04;97851.09;;;1.41;58.10
78890;BME280;68279;48.964;14.502;2023-04-03T17:49:29;97845.81;;;1.48;57.93
78890;BME280;68279;48.964;14.502;2023-04-03T17:51:56;97853.50;;;1.50;58.02
78890;BME280;68279;48.964;14.502;2023-04-03T17:54:22;97846.81;;;1.34;57.32
78890;BME280;68279;48.964;14.502;2023-04-03T17:56:48;97850.47;;;1.39;57.23
78890;BME280;68279;48.964;14.502;2023-04-03T17:59:14;97853.47;;;1.23;58.37
78890;BME280;68279;48.964;14.502;2023-04-03T18:01:43;97851.88;;;1.35;58.63
78890;BME280;68279;48.964;14.502;2023-04-03T18:04:10;97851.69;;;1.24;58.69
78890;BME280;68279;48.964;14.502;2023-04-03T18:06:47;97856.94;;;1.30;58.80
78890;BME280;68279;48.964;14.502;2023-04-03T18:09:16;97857.13;;;1.09;60.43
78890;BME280;68279;48.964;14.502;2023-04-03T18:11:45;97852.25;;;1.12;59.25
78890;BME280;68279;48.964;14.502;2023-04-03T18:14:13;97858.94;;;1.08;59.87
78890;BME280;68279;48.964;14.502;2023-04-03T18:16:39;97854.66;;;1.01;60.38
78890;BME280;68279;48.964;14.502;2023-04-03T18:19:05;97861.31;;;0.97;60.64
78890;BME280;68279;48.964;14.502;2023-04-03T18:21:34;97862.59;;;1.07;59.20
78890;BME280;68279;48.964;14.502;2023-04-03T18:24:04;97862.78;;;1.12;58.93
78890;BME280;68279;48.964;14.502;2023-04-03T18:26:33;97862.16;;;1.04;59.01
78890;BME280;68279;48.964;14.502;2023-04-03T18:29:03;97867.03;;;1.00;59.00
78890;BME280;68279;48.964;14.502;2023-04-03T18:31:31;97867.81;;;0.94;60.19
78890;BME280;68279;48.964;14.502;2023-04-03T18:33:59;97873.28;;;0.93;60.62
78890;BME280;68279;48.964;14.502;2023-04-03T18:36:26;97872.66;;;0.91;60.04
78890;BME280;68279;48.964;14.502;2023-04-03T18:38:53;97870.06;;;0.97;60.23
78890;BME280;68279;48.964;14.502;2023-04-03T18:41:21;97874.75;;;1.08;59.59
78890;BME280;68279;48.964;14.502;2023-04-03T18:43:50;97886.22;;;0.94;60.38
78890;BME280;68279;48.964;14.502;2023-04-03T18:46:15;97880.53;;;0.84;60.10
78890;BME280;68279;48.964;14.502;2023-04-03T18:48:44;97880.19;;;1.00;60.15
78890;BME280;68279;48.964;14.502;2023-04-03T18:51:13;97892.91;;;0.90;60.19
78890;BME280;68279;48.964;14.502;2023-04-03T18:53:39;97869.22;;;0.90;59.99
78890;BME280;68279;48.964;14.502;2023-04-03T18:56:06;97883.19;;;0.91;60.32
78890;BME280;68279;48.964;14.502;2023-04-03T18:58:32;97889.44;;;0.83;61.04
78890;BME280;68279;48.964;14.502;2023-04-03T19:00:58;97887.00;;;0.81;62.07
78890;BME280;68279;48.964;14.502;2023-04-03T19:03:26;97893.13;;;0.89;60.80
78890;BME280;68279;48.964;14.502;2023-04-03T19:05:52;97887.25;;;0.93;61.25
78890;BME280;68279;48.964;14.502;2023-04-03T19:08:18;97888.84;;;0.88;61.62
78890;BME280;68279;48.964;14.502;2023-04-03T19:10:43;97890.66;;;0.80;61.53
78890;BME280;68279;48.964;14.502;2023-04-03T19:13:09;97891.06;;;0.84;60.80
78890;BME280;68279;48.964;14.502;2023-04-03T19:15:38;97896.50;;;0.76;62.03
78890;BME280;68279;48.964;14.502;2023-04-03T19:18:08;97895.66;;;0.69;61.86
78890;BME280;68279;48.964;14.502;2023-04-03T19:20:34;97890.81;;;0.72;61.98
78890;BME280;68279;48.964;14.502;2023-04-03T19:23:01;97894.69;;;0.76;62.27
78890;BME280;68279;48.964;14.502;2023-04-03T19:25:26;97897.34;;;0.83;63.24
78890;BME280;68279;48.964;14.502;2023-04-03T19:27:52;97889.53;;;0.55;63.72
78890;BME280;68279;48.964;14.502;2023-04-03T19:30:18;97889.19;;;0.71;63.40
78890;BME280;68279;48.964;14.502;2023-04-03T19:32:45;97895.84;;;0.67;64.16
78890;BME280;68279;48.964;14.502;2023-04-03T19:35:17;97900.31;;;0.67;63.54
78890;BME280;68279;48.964;14.502;2023-04-03T19:37:42;97893.19;;;0.61;64.45
78890;BME280;68279;48.964;14.502;2023-04-03T19:40:10;97898.44;;;0.54;64.16
78890;BME280;68279;48.964;14.502;2023-04-03T19:42:35;97902.88;;;0.53;63.95
78890;BME280;68279;48.964;14.502;2023-04-03T19:45:06;97908.59;;;0.64;64.27
78890;BME280;68279;48.964;14.502;2023-04-03T19:47:33;97906.75;;;0.57;64.41
78890;BME280;68279;48.964;14.502;2023-04-03T19:50:01;97904.47;;;0.48;64.28
78890;BME280;68279;48.964;14.502;2023-04-03T19:52:26;97913.97;;;0.49;64.47
78890;BME280;68279;48.964;14.502;2023-04-03T19:54:52;97916.38;;;0.44;64.89
78890;BME280;68279;48.964;14.502;2023-04-03T19:57:23;97916.75;;;0.41;65.18
78890;BME280;68279;48.964;14.502;2023-04-03T19:59:49;97917.63;;;0.48;65.95
78890;BME280;68279;48.964;14.502;2023-04-03T20:02:14;97918.69;;;0.60;64.78
78890;BME280;68279;48.964;14.502;2023-04-03T20:04:42;97915.00;;;0.48;64.37
78890;BME280;68279;48.964;14.502;2023-04-03T20:07:08;97924.03;;;0.39;65.03
78890;BME280;68279;48.964;14.502;2023-04-03T20:09:33;97918.78;;;0.39;64.68
78890;BME280;68279;48.964;14.502;2023-04-03T20:12:00;97919.59;;;0.39;64.50
78890;BME280;68279;48.964;14.502;2023-04-03T20:14:26;97923.00;;;0.33;64.64
78890;BME280;68279;48.964;14.502;2023-04-03T20:16:52;97919.19;;;0.36;63.86
78890;BME280;68279;48.964;14.502;2023-04-03T20:19:18;97929.91;;;0.41;64.02
78890;BME280;68279;48.964;14.502;2023-04-03T20:21:44;97924.63;;;0.34;65.13
78890;BME280;68279;48.964;14.502;2023-04-03T20:24:10;97925.25;;;0.36;65.35
78890;BME280;68279;48.964;14.502;2023-04-03T20:26:37;97915.88;;;0.27;65.80
78890;BME280;68279;48.964;14.502;2023-04-03T20:29:09;97918.31;;;0.28;64.89
78890;BME280;68279;48.964;14.502;2023-04-03T20:31:35;97921.50;;;0.24;65.05
78890;BME280;68279;48.964;14.502;2023-04-03T20:34:02;97925.97;;;0.23;65.37
78890;BME280;68279;48.964;14.502;2023-04-03T20:36:28;97921.97;;;0.34;65.17
78890;BME280;68279;48.964;14.502;2023-04-03T20:38:55;97926.16;;;0.22;65.58
78890;BME280;68279;48.964;14.502;2023-04-03T20:41:21;97925.34;;;0.21;66.22
78890;BME280;68279;48.964;14.502;2023-04-03T20:43:49;97930.28;;;0.31;65.64
78890;BME280;68279;48.964;14.502;2023-04-03T20:46:14;97922.91;;;0.20;66.00
78890;BME280;68279;48.964;14.502;2023-04-03T20:48:44;97923.53;;;0.22;66.09
78890;BME280;68279;48.964;14.502;2023-04-03T20:51:14;97923.94;;;0.25;65.53
78890;BME280;68279;48.964;14.502;2023-04-03T20:53:39;97918.63;;;0.12;67.14
78890;BME280;68279;48.964;14.502;2023-04-03T20:56:06;97921.50;;;0.24;66.08
78890;BME280;68279;48.964;14.502;2023-04-03T20:58:35;97913.34;;;0.12;66.26
78890;BME280;68279;48.964;14.502;2023-04-03T21:01:02;97918.63;;;0.12;66.73
78890;BME280;68279;48.964;14.502;2023-04-03T21:03:36;97913.41;;;0.19;67.05
78890;BME280;68279;48.964;14.502;2023-04-03T21:20:32;97917.66;;;0.20;65.87
78890;BME280;68279;48.964;14.502;2023-04-03T21:22:58;97912.53;;;0.12;67.89
78890;BME280;68279;48.964;14.502;2023-04-03T21:25:23;97914.97;;;0.13;65.80
78890;BME280;68279;48.964;14.502;2023-04-03T21:27:50;97910.13;;;0.17;66.35
78890;BME280;68279;48.964;14.502;2023-04-03T21:30:16;97918.41;;;0.14;65.82
78890;BME280;68279;48.964;14.502;2023-04-03T21:32:43;97911.28;;;0.08;66.14
78890;BME280;68279;48.964;14.502;2023-04-03T21:35:08;97906.84;;;0.08;65.91
78890;BME280;68279;48.964;14.502;2023-04-03T21:37:35;97917.00;;;0.11;65.63
78890;BME280;68279;48.964;14.502;2023-04-03T21:40:00;97901.44;;;0.51;63.73
78890;BME280;68279;48.964;14.502;2023-04-03T21:42:27;97904.63;;;0.40;63.40
78890;BME280;68279;48.964;14.502;2023-04-03T21:44:53;97903.22;;;0.09;65.02
78890;BME280;68279;48.964;14.502;2023-04-03T21:47:18;97903.50;;;0.21;64.30
78890;BME280;68279;48.964;14.502;2023-04-03T21:49:45;97898.66;;;0.24;64.00
78890;BME280;68279;48.964;14.502;2023-04-03T21:52:12;97901.81;;;0.13;64.97
78890;BME280;68279;48.964;14.502;2023-04-03T21:54:38;97903.38;;;0.01;66.09
78890;BME280;68279;48.964;14.502;2023-04-03T21:57:04;97902.56;;;0.01;66.44